Time;durP1;ratioP1;P1;durP2;ratioP2;P2;SDS_P1;SDS_P2;PMS_P1;PMS_P2;Temp;Humidity;BMP_temperature;BMP_pressure;BME280_temperature;BME280_humidity;BME280_pressure;Samples;Min_cycle;Max_cycle;Signal;HPM_P1;HPM_P2
2021/08/16 00:00:29;;;;;;;15.00;10.18;;;;;;;22.20;58.61;100440.09;1710265;82;21138;-65
2021/08/16 00:02:56;;;;;;;15.75;9.83;;;;;;;22.20;58.76;100438.77;1659233;83;21081;-66
2021/08/16 00:05:22;;;;;;;12.95;9.00;;;;;;;22.16;59.30;100446.38;1711044;82;21143;-69
2021/08/16 00:07:48;;;;;;;14.47;9.28;;;;;;;22.16;59.28;100446.38;1674725;84;21557;-68
2021/08/16 00:10:16;;;;;;;14.93;9.50;;;;;;;22.14;59.33;100445.75;1713601;82;21756;-65
2021/08/16 00:12:43;;;;;;;14.07;9.88;;;;;;;22.13;59.45;100445.95;1707188;82;21041;-65
2021/08/16 00:15:10;;;;;;;15.48;9.93;;;;;;;22.11;59.74;100442.61;1716048;82;21795;-65
2021/08/16 00:17:37;;;;;;;14.43;8.95;;;;;;;22.10;60.18;100447.67;1670603;83;21121;-65
2021/08/16 00:20:08;;;;;;;14.95;9.10;;;;;;;22.12;60.51;100439.73;1709622;82;21499;-65
2021/08/16 00:22:34;;;;;;;19.65;9.85;;;;;;;22.17;60.58;100436.47;1702412;81;21138;-65
2021/08/16 00:25:01;;;;;;;14.23;8.90;;;;;;;22.20;60.52;100437.42;1709076;82;21047;-68
2021/08/16 00:27:29;;;;;;;16.02;10.03;;;;;;;22.22;60.43;100435.36;1709045;82;21099;-65
2021/08/16 00:29:56;;;;;;;14.40;9.40;;;;;;;22.21;60.35;100437.22;1701056;82;21159;-67
2021/08/16 00:32:24;;;;;;;16.37;10.50;;;;;;;22.20;60.73;100439.58;1711417;82;21490;-64
2021/08/16 00:34:52;;;;;;;14.15;9.58;;;;;;;22.19;60.85;100437.94;1713119;82;21121;-65
2021/08/16 00:37:20;;;;;;;12.43;9.00;;;;;;;22.19;60.79;100437.09;1709437;82;21177;-65
2021/08/16 00:39:46;;;;;;;13.28;9.30;;;;;;;22.16;60.64;100441.02;1709445;82;21502;-65
2021/08/16 00:42:14;;;;;;;13.68;9.40;;;;;;;22.09;60.50;100428.09;1709784;82;21102;-65
2021/08/16 00:44:41;;;;;;;15.58;9.85;;;;;;;22.03;60.85;100431.55;1708962;82;21047;-66
2021/08/16 00:47:07;;;;;;;15.40;10.10;;;;;;;21.98;61.04;100432.66;1670557;83;21062;-67
2021/08/16 00:49:34;;;;;;;16.42;9.35;;;;;;;21.95;61.85;100428.51;1671687;84;21071;-66
2021/08/16 00:52:02;;;;;;;15.72;9.63;;;;;;;21.94;62.55;100428.21;1672170;84;21161;-64
2021/08/16 00:54:30;;;;;;;14.07;10.08;;;;;;;21.97;62.45;100426.97;1649090;85;21870;-65
2021/08/16 00:57:01;;;;;;;13.35;9.53;;;;;;;21.98;62.68;100425.96;1642648;85;21072;-65
2021/08/16 00:59:27;;;;;;;15.00;9.53;;;;;;;21.97;62.46;100433.18;1671077;83;21572;-65
2021/08/16 01:01:55;;;;;;;15.93;9.68;;;;;;;21.94;62.50;100430.04;1706861;82;21089;-65
2021/08/16 01:04:23;;;;;;;15.28;9.53;;;;;;;21.91;62.29;100423.77;1708670;82;21019;-65
2021/08/16 01:06:49;;;;;;;13.80;8.90;;;;;;;21.88;62.13;100435.16;1672374;83;21138;-65
2021/08/16 01:09:17;;;;;;;17.10;10.05;;;;;;;21.86;61.93;100438.55;1639696;85;21573;-66
2021/08/16 01:11:46;;;;;;;14.25;10.50;;;;;;;21.83;62.17;100438.13;1670055;83;21041;-65
2021/08/16 01:14:15;;;;;;;17.62;10.13;;;;;;;21.80;62.18;100434.48;1651366;84;21091;-64
2021/08/16 01:16:41;;;;;;;16.85;10.78;;;;;;;21.78;62.41;100427.98;1697708;82;21031;-65
2021/08/16 01:19:08;;;;;;;14.25;10.50;;;;;;;21.78;62.33;100433.34;1721059;81;21118;-64
2021/08/16 01:21:35;;;;;;;17.42;9.50;;;;;;;21.81;62.42;100430.80;1696290;82;21585;-64
2021/08/16 01:24:01;;;;;;;14.58;10.13;;;;;;;21.84;62.51;100437.11;1725363;81;21102;-64
2021/08/16 01:26:33;;;;;;;14.40;10.35;;;;;;;21.84;62.65;100431.75;1719834;81;21886;-66
2021/08/16 01:29:16;;;;;;;16.50;10.03;;;;;;;21.82;62.70;100429.76;1723617;81;21565;-64
2021/08/16 01:31:43;;;;;;;15.65;10.53;;;;;;;21.80;62.76;100422.44;1718059;81;21101;-64
2021/08/16 01:34:10;;;;;;;15.18;10.30;;;;;;;21.75;62.98;100424.35;1700073;82;21098;-65
2021/08/16 01:36:37;;;;;;;14.18;9.73;;;;;;;21.71;63.06;100425.78;1719105;82;21074;-67
2021/08/16 01:39:04;;;;;;;14.68;9.90;;;;;;;21.66;63.08;100434.39;1718364;81;21062;-64
2021/08/16 01:41:30;;;;;;;15.13;9.58;;;;;;;21.59;63.21;100424.15;1717401;81;21034;-65
2021/08/16 01:43:57;;;;;;;14.80;9.33;;;;;;;21.59;63.32;100424.67;1722615;81;22292;-65
2021/08/16 01:46:25;;;;;;;12.47;9.50;;;;;;;21.62;63.24;100424.25;1697158;82;21067;-65
2021/08/16 01:48:53;;;;;;;16.02;10.32;;;;;;;21.66;63.18;100423.68;1723774;81;21047;-64
2021/08/16 01:51:20;;;;;;;14.20;9.58;;;;;;;21.68;63.17;100422.97;1721916;81;21079;-65
2021/08/16 01:53:48;;;;;;;13.98;10.50;;;;;;;21.67;63.24;100425.84;1717953;81;21113;-65
2021/08/16 01:56:14;;;;;;;18.00;11.00;;;;;;;21.63;63.41;100420.05;1722061;81;21572;-65
2021/08/16 01:58:40;;;;;;;14.35;9.68;;;;;;;21.61;63.46;100423.44;1669263;82;21051;-65
2021/08/16 02:01:07;;;;;;;15.48;9.73;;;;;;;21.59;63.45;100425.48;1723147;81;21051;-65
2021/08/16 02:03:33;;;;;;;16.05;10.63;;;;;;;21.57;63.47;100424.86;1721296;81;21066;-64
2021/08/16 02:06:00;;;;;;;19.07;10.15;;;;;;;21.54;63.42;100423.91;1719732;82;21047;-65
2021/08/16 02:08:26;;;;;;;13.03;9.58;;;;;;;21.55;63.42;100415.35;1717349;81;22051;-66
2021/08/16 02:10:54;;;;;;;13.70;9.78;;;;;;;21.58;63.18;100415.79;1720358;81;21070;-68
2021/08/16 02:13:21;;;;;;;16.20;10.30;;;;;;;21.60;62.96;100421.80;1721937;81;21142;-64
2021/08/16 02:15:47;;;;;;;15.23;11.12;;;;;;;21.60;62.71;100416.45;1721434;81;21486;-68
2021/08/16 02:18:13;;;;;;;14.63;9.73;;;;;;;21.60;62.69;100415.11;1725694;81;21022;-68
2021/08/16 02:20:40;;;;;;;13.83;10.58;;;;;;;21.58;62.52;100412.30;1700949;83;21079;-68
2021/08/16 02:23:06;;;;;;;13.93;10.03;;;;;;;21.55;62.43;100422.86;1726147;81;21042;-65
2021/08/16 02:25:34;;;;;;;13.53;9.73;;;;;;;21.51;62.19;100424.28;1724518;81;21039;-65
2021/08/16 02:28:01;;;;;;;14.45;9.85;;;;;;;21.44;62.25;100425.53;1691009;83;22199;-65
2021/08/16 02:30:27;;;;;;;12.35;9.30;;;;;;;21.39;62.49;100421.28;1649875;84;21097;-66
2021/08/16 02:32:54;;;;;;;19.65;10.45;;;;;;;21.34;62.49;100429.87;1677788;84;21204;-65
2021/08/16 02:35:20;;;;;;;14.98;9.18;;;;;;;21.35;62.35;100432.06;1667149;84;21206;-65
2021/08/16 02:37:46;;;;;;;14.90;9.48;;;;;;;21.38;62.19;100430.31;1668070;85;21605;-66
2021/08/16 02:40:14;;;;;;;14.75;10.00;;;;;;;21.42;62.12;100433.46;1666724;84;21111;-64
2021/08/16 02:42:41;;;;;;;14.78;10.38;;;;;;;21.42;62.11;100435.62;1667089;84;21768;-65
2021/08/16 02:45:09;;;;;;;15.53;8.95;;;;;;;21.39;61.76;100435.18;1667706;84;21172;-65
2021/08/16 02:47:38;;;;;;;11.90;8.65;;;;;;;21.31;61.81;100437.47;1689170;83;21081;-66
2021/08/16 02:50:05;;;;;;;16.45;10.28;;;;;;;21.24;61.85;100445.44;1666385;84;21075;-65
2021/08/16 02:52:33;;;;;;;14.63;9.70;;;;;;;21.19;62.05;100445.70;1664221;84;22388;-65
2021/08/16 02:55:00;;;;;;;16.60;10.60;;;;;;;21.15;62.22;100443.92;1667447;84;21526;-66
2021/08/16 02:57:27;;;;;;;15.38;11.12;;;;;;;21.13;62.16;100453.95;1664245;84;21196;-66
2021/08/16 02:59:53;;;;;;;14.47;10.70;;;;;;;21.11;62.04;100454.14;1665363;84;21690;-67
2021/08/16 03:02:20;;;;;;;14.20;9.68;;;;;;;21.09;61.65;100454.85;1662217;84;21092;-64
2021/08/16 03:04:46;;;;;;;14.00;9.80;;;;;;;21.05;61.59;100459.45;1690238;83;21105;-65
2021/08/16 03:07:13;;;;;;;12.55;9.80;;;;;;;21.04;61.56;100457.79;1662730;84;21170;-64
2021/08/16 03:09:39;;;;;;;15.45;9.90;;;;;;;21.07;61.57;100457.41;1666909;84;22033;-65
2021/08/16 03:12:06;;;;;;;14.73;10.05;;;;;;;21.11;61.99;100457.34;1696276;83;21030;-64
2021/08/16 03:14:33;;;;;;;15.60;10.72;;;;;;;21.13;61.97;100454.80;1691358;83;21137;-66
2021/08/16 03:16:59;;;;;;;14.18;10.48;;;;;;;21.17;61.97;100452.58;1657031;84;21040;-65
2021/08/16 03:19:26;;;;;;;15.25;9.58;;;;;;;21.16;62.15;100456.26;1716868;82;21074;-66
2021/08/16 03:21:52;;;;;;;15.40;10.28;;;;;;;21.14;62.37;100456.96;1693545;82;21183;-66
2021/08/16 03:24:19;;;;;;;23.55;11.22;;;;;;;21.11;62.46;100458.67;1712758;82;21054;-64
2021/08/16 03:26:46;;;;;;;15.72;8.85;;;;;;;21.10;62.39;100462.39;1712283;82;21061;-67
2021/08/16 03:29:12;;;;;;;15.58;10.68;;;;;;;21.07;62.52;100457.41;1712359;82;21071;-65
2021/08/16 03:31:39;;;;;;;15.05;10.10;;;;;;;21.03;62.60;100456.12;1718435;82;21098;-65
2021/08/16 03:34:06;;;;;;;16.27;9.68;;;;;;;21.01;62.02;100458.16;1713661;82;21178;-65
2021/08/16 03:36:32;;;;;;;13.13;9.95;;;;;;;21.03;61.57;100456.12;1715932;82;21081;-68
2021/08/16 03:38:59;;;;;;;15.25;10.13;;;;;;;21.02;61.57;100455.30;1713202;82;21094;-66
2021/08/16 03:41:27;;;;;;;16.85;10.68;;;;;;;21.00;61.77;100456.49;1699896;82;21052;-65
2021/08/16 03:43:53;;;;;;;16.82;10.98;;;;;;;20.97;62.30;100451.84;1713995;82;21280;-64
2021/08/16 03:46:21;;;;;;;16.95;10.85;;;;;;;20.96;62.67;100448.88;1717027;82;21490;-64
2021/08/16 03:48:47;;;;;;;13.58;10.00;;;;;;;20.97;62.99;100449.17;1713343;82;21044;-68
2021/08/16 03:51:13;;;;;;;18.70;10.65;;;;;;;20.99;63.13;100444.16;1707177;82;21502;-65
2021/08/16 03:53:41;;;;;;;13.38;9.68;;;;;;;21.05;63.25;100451.43;1685266;82;21059;-65
2021/08/16 03:56:10;;;;;;;19.40;10.05;;;;;;;21.11;63.30;100449.31;1690854;82;21050;-64
2021/08/16 03:58:41;;;;;;;15.78;10.80;;;;;;;21.18;63.12;100446.19;1713896;82;21075;-66
2021/08/16 04:01:08;;;;;;;14.68;10.70;;;;;;;21.23;63.01;100451.83;1710216;82;21482;-65
2021/08/16 04:03:35;;;;;;;15.28;10.40;;;;;;;21.27;62.90;100450.92;1714695;82;21528;-64
2021/08/16 04:06:01;;;;;;;15.65;11.08;;;;;;;21.30;62.82;100451.37;1689841;82;21105;-63
2021/08/16 04:08:27;;;;;;;15.43;10.13;;;;;;;21.34;62.62;100456.64;1718748;82;21047;-65
2021/08/16 04:10:55;;;;;;;13.28;11.15;;;;;;;21.37;62.71;100454.59;1704648;82;21139;-66
2021/08/16 04:13:22;;;;;;;17.62;11.03;;;;;;;21.40;62.85;100454.22;1717058;82;20981;-64
2021/08/16 04:15:48;;;;;;;15.38;10.48;;;;;;;21.43;63.10;100449.82;1711862;82;21054;-65
2021/08/16 04:21:17;;;;;;;17.45;10.25;;;;;;;21.67;62.76;100450.78;1794015;77;22491;-59
2021/08/16 04:23:44;;;;;;;14.43;10.08;;;;;;;21.69;62.50;100454.61;1778491;78;21815;-60
2021/08/16 04:26:10;;;;;;;17.37;10.95;;;;;;;21.71;62.41;100454.72;1750183;80;21461;-60
2021/08/16 04:28:38;;;;;;;13.30;10.72;;;;;;;21.74;62.46;100457.53;1773558;78;21062;-60
2021/08/16 04:31:05;;;;;;;16.70;11.10;;;;;;;21.78;62.18;100459.30;1767689;78;21018;-64
2021/08/16 04:33:32;;;;;;;16.05;10.32;;;;;;;21.81;62.04;100456.24;1773233;78;20974;-61
2021/08/16 04:35:59;;;;;;;18.75;11.48;;;;;;;21.84;61.93;100455.34;1772354;78;21322;-61
2021/08/16 04:38:25;;;;;;;19.32;10.93;;;;;;;21.87;61.84;100457.63;1773701;80;21187;-61
2021/08/16 04:40:52;;;;;;;12.90;9.95;;;;;;;21.93;61.87;100453.85;1738088;78;21339;-60
2021/08/16 04:43:20;;;;;;;16.52;11.55;;;;;;;22.02;61.40;100452.17;1765048;78;21006;-59
2021/08/16 04:45:47;;;;;;;16.97;11.08;;;;;;;22.10;60.61;100452.51;1766129;79;21049;-61
2021/08/16 04:48:13;;;;;;;15.05;10.78;;;;;;;22.17;60.40;100451.21;1786207;78;21089;-60
2021/08/16 04:50:40;;;;;;;18.52;11.30;;;;;;;22.22;60.30;100451.45;1748922;80;21619;-61
2021/08/16 04:53:07;;;;;;;15.80;10.35;;;;;;;22.26;60.31;100450.86;1773862;78;21086;-60
2021/08/16 04:55:35;;;;;;;16.35;10.95;;;;;;;22.31;60.31;100450.80;1745296;78;21144;-61
2021/08/16 04:58:02;;;;;;;17.90;11.93;;;;;;;22.37;60.25;100450.83;1769541;78;21114;-59
2021/08/16 05:00:29;;;;;;;15.15;10.70;;;;;;;22.41;60.39;100445.92;1773774;78;21073;-58
2021/08/16 05:02:56;;;;;;;19.80;11.60;;;;;;;22.47;60.34;100441.08;1769854;78;21207;-59
2021/08/16 05:05:29;;;;;;;15.38;10.68;;;;;;;22.52;60.09;100446.67;1736771;80;21200;-58
2021/08/16 05:07:58;;;;;;;14.50;9.78;;;;;;;22.54;60.17;100447.30;1728508;81;21565;-59
2021/08/16 05:10:26;;;;;;;16.40;10.48;;;;;;;22.59;59.60;100445.36;1726971;81;21659;-58
2021/08/16 05:12:56;;;;;;;14.70;10.38;;;;;;;22.71;59.67;100442.92;1725736;81;21089;-59
2021/08/16 05:15:23;;;;;;;15.85;10.30;;;;;;;22.80;59.76;100439.86;1728583;81;21125;-58
2021/08/16 05:17:51;;;;;;;16.35;12.00;;;;;;;22.91;59.40;100444.33;1729240;81;21105;-59
2021/08/16 05:20:20;;;;;;;17.32;11.90;;;;;;;22.95;58.90;100445.59;1696826;81;21066;-59
2021/08/16 05:22:48;;;;;;;17.55;10.55;;;;;;;23.03;58.38;100449.92;1690838;82;22540;-59
2021/08/16 05:25:17;;;;;;;19.42;12.75;;;;;;;23.08;58.25;100442.97;1690199;83;21138;-59
2021/08/16 05:27:44;;;;;;;16.23;10.82;;;;;;;23.16;58.08;100434.70;1695740;83;21142;-59
2021/08/16 05:30:11;;;;;;;17.32;10.65;;;;;;;23.23;57.82;100429.34;1694485;83;20950;-59
2021/08/16 05:32:38;;;;;;;17.87;11.10;;;;;;;23.26;57.64;100434.83;1694883;84;20999;-59
2021/08/16 05:35:06;;;;;;;16.05;10.45;;;;;;;23.30;57.32;100444.11;1666677;83;21115;-59
2021/08/16 05:37:33;;;;;;;15.32;10.93;;;;;;;23.34;57.27;100438.13;1691543;82;21113;-61
2021/08/16 05:39:59;;;;;;;14.00;10.18;;;;;;;23.39;57.37;100442.08;1689142;82;21140;-59
2021/08/16 05:42:26;;;;;;;15.90;10.18;;;;;;;23.42;57.16;100443.83;1694175;83;21082;-58
2021/08/16 05:44:53;;;;;;;17.30;11.33;;;;;;;23.47;56.70;100448.06;1692271;83;21547;-59
2021/08/16 05:47:19;;;;;;;16.65;10.58;;;;;;;23.53;57.01;100445.88;1689786;83;21163;-58
2021/08/16 05:49:46;;;;;;;15.40;10.25;;;;;;;23.60;56.62;100450.42;1691533;83;21552;-62
2021/08/16 05:52:12;;;;;;;16.35;9.90;;;;;;;23.71;56.41;100455.19;1691333;82;21167;-58
2021/08/16 05:54:41;;;;;;;19.17;9.95;;;;;;;23.83;56.49;100461.59;1686922;83;21601;-60
2021/08/16 05:57:08;;;;;;;17.00;12.40;;;;;;;23.98;55.94;100472.66;1691329;82;21104;-59
2021/08/16 05:59:35;;;;;;;15.83;10.20;;;;;;;24.09;55.64;100478.71;1690486;83;21141;-64
2021/08/16 06:02:02;;;;;;;19.07;11.20;;;;;;;24.16;55.14;100478.20;1694727;82;21747;-64
2021/08/16 06:04:30;;;;;;;15.45;10.68;;;;;;;24.26;54.78;100464.33;1694482;83;22338;-64
2021/08/16 06:06:59;;;;;;;15.93;10.75;;;;;;;24.35;54.59;100459.02;1667108;83;21134;-64
2021/08/16 06:09:29;;;;;;;14.90;9.88;;;;;;;24.45;54.30;100455.36;1653066;84;21523;-63
2021/08/16 06:11:55;;;;;;;17.62;10.00;;;;;;;24.54;53.77;100455.12;1681626;82;21592;-63
2021/08/16 06:14:23;;;;;;;15.80;10.13;;;;;;;24.62;54.39;100449.53;1703853;83;21095;-60
2021/08/16 06:16:51;;;;;;;16.12;9.80;;;;;;;24.72;55.08;100444.51;1740786;81;21110;-63
2021/08/16 06:19:17;;;;;;;14.10;10.58;;;;;;;24.78;55.05;100440.13;1740718;82;21038;-60
2021/08/16 06:21:44;;;;;;;13.93;9.83;;;;;;;24.83;55.77;100434.92;1738252;79;21074;-58
2021/08/16 06:24:11;;;;;;;15.03;9.70;;;;;;;24.92;56.06;100434.98;1745410;79;21105;-59
2021/08/16 06:26:39;;;;;;;18.45;10.82;;;;;;;25.06;56.72;100428.98;1774667;79;21124;-58
2021/08/16 06:29:06;;;;;;;18.35;10.03;;;;;;;25.19;56.50;100429.42;1770943;78;21137;-59
2021/08/16 06:31:33;;;;;;;18.07;10.55;;;;;;;25.29;56.48;100433.83;1746227;80;21141;-58
2021/08/16 06:34:00;;;;;;;15.32;10.65;;;;;;;25.37;56.62;100441.65;1765665;79;21082;-59
2021/08/16 06:36:27;;;;;;;15.18;10.58;;;;;;;25.42;56.44;100437.45;1765211;79;21081;-59
2021/08/16 06:38:54;;;;;;;15.18;10.32;;;;;;;25.48;56.17;100437.94;1738902;80;21070;-59
2021/08/16 06:41:21;;;;;;;14.63;10.18;;;;;;;25.52;55.83;100441.83;1771131;79;21120;-57
2021/08/16 06:43:47;;;;;;;15.23;9.83;;;;;;;25.55;56.06;100446.27;1766261;79;21145;-59
2021/08/16 06:46:15;;;;;;;13.55;9.60;;;;;;;25.60;55.79;100446.94;1723904;80;21067;-59
2021/08/16 06:48:43;;;;;;;11.35;9.03;;;;;;;25.65;55.58;100455.19;1710484;82;21177;-58
2021/08/16 06:51:12;;;;;;;14.45;9.85;;;;;;;25.68;55.93;100459.32;1735148;79;21446;-59
2021/08/16 06:53:38;;;;;;;13.40;9.83;;;;;;;25.72;56.30;100457.81;1763272;79;21179;-59
2021/08/16 06:56:05;;;;;;;13.18;9.73;;;;;;;25.74;56.50;100449.02;1764496;79;21549;-63
2021/08/16 06:58:33;;;;;;;12.47;10.00;;;;;;;25.82;56.68;100446.55;1768492;78;21037;-64
2021/08/16 07:01:01;;;;;;;13.38;10.13;;;;;;;25.95;56.85;100448.61;1765499;79;21121;-63
2021/08/16 07:03:28;;;;;;;14.73;10.60;;;;;;;26.08;56.93;100451.70;1740908;79;21133;-64
2021/08/16 07:05:55;;;;;;;18.55;10.85;;;;;;;26.17;57.21;100446.83;1762034;79;21100;-65
2021/08/16 07:08:21;;;;;;;15.95;9.75;;;;;;;26.31;56.68;100452.92;1765543;79;21600;-64
2021/08/16 07:10:50;;;;;;;13.98;9.50;;;;;;;26.39;56.16;100449.89;1767771;79;21082;-64
2021/08/16 07:13:18;;;;;;;13.75;9.33;;;;;;;26.47;56.04;100445.54;1768252;79;21035;-64
2021/08/16 07:15:46;;;;;;;14.03;9.33;;;;;;;26.54;55.20;100441.95;1739056;80;21109;-64
2021/08/16 07:18:15;;;;;;;14.63;8.45;;;;;;;26.63;54.60;100451.39;1745435;79;21510;-65
2021/08/16 07:20:44;;;;;;;12.75;9.15;;;;;;;26.71;54.53;100452.97;1766427;78;21050;-63
2021/08/16 07:23:11;;;;;;;13.03;9.23;;;;;;;26.77;54.45;100450.71;1743563;79;21109;-63
2021/08/16 07:25:39;;;;;;;15.88;8.93;;;;;;;26.82;54.24;100453.02;1766538;79;21007;-63
2021/08/16 07:28:08;;;;;;;11.93;8.28;;;;;;;26.88;54.03;100444.52;1764705;79;21066;-63
2021/08/16 07:30:35;;;;;;;10.68;7.45;;;;;;;26.95;53.33;100442.56;1761345;79;21132;-65
2021/08/16 07:33:02;;;;;;;13.05;9.78;;;;;;;27.02;53.64;100449.22;1730083;82;21054;-58
2021/08/16 07:35:29;;;;;;;12.93;9.33;;;;;;;27.07;53.93;100448.00;1762259;79;21062;-60
2021/08/16 07:37:57;;;;;;;15.03;9.38;;;;;;;27.13;54.32;100450.29;1768339;79;21055;-59
2021/08/16 07:40:24;;;;;;;11.12;8.20;;;;;;;27.16;54.06;100447.13;1667723;84;21078;-59
2021/08/16 07:42:51;;;;;;;13.62;9.00;;;;;;;27.20;53.95;100444.25;1703685;83;21125;-59
2021/08/16 07:45:17;;;;;;;11.48;8.13;;;;;;;27.23;53.80;100438.39;1767331;79;21172;-60
2021/08/16 07:47:44;;;;;;;13.83;10.23;;;;;;;27.28;53.63;100447.97;1768286;79;21529;-59
2021/08/16 07:50:12;;;;;;;11.78;9.23;;;;;;;27.32;53.79;100448.36;1758144;80;21156;-59
2021/08/16 07:52:42;;;;;;;14.10;9.45;;;;;;;27.38;53.35;100445.55;1766714;79;21174;-59
2021/08/16 07:55:09;;;;;;;14.10;9.55;;;;;;;27.51;53.36;100447.77;1771367;79;21829;-59
2021/08/16 07:57:36;;;;;;;13.65;9.88;;;;;;;27.63;53.21;100445.06;1762037;79;22351;-58
2021/08/16 08:00:08;;;;;;;16.12;8.93;;;;;;;27.70;53.41;100440.36;1770413;79;21598;-58
2021/08/16 08:02:49;;;;;;;13.00;9.33;;;;;;;27.78;52.79;100445.42;1766702;79;21102;-59
2021/08/16 08:05:17;;;;;;;;;;;;;;;27.84;51.67;100444.98;1767612;79;21074;-60
2021/08/16 08:07:44;;;;;;;15.95;8.48;;;;;;;27.90;51.81;100445.41;1762658;79;21749;-58
2021/08/16 08:10:12;;;;;;;13.30;7.67;;;;;;;27.88;51.17;100441.59;1765192;79;21093;-56
2021/08/16 08:12:39;;;;;;;18.45;8.28;;;;;;;27.94;50.83;100444.73;1739888;80;20998;-65
2021/08/16 08:15:08;;;;;;;15.68;8.90;;;;;;;27.98;50.72;100440.48;1760328;79;21152;-70
2021/08/16 08:17:35;;;;;;;11.00;8.48;;;;;;;28.03;50.05;100438.44;1760964;79;22465;-68
2021/08/16 08:20:04;;;;;;;19.60;7.85;;;;;;;28.08;50.02;100436.38;1768150;79;21736;-65
2021/08/16 08:22:31;;;;;;;12.75;7.92;;;;;;;28.10;49.72;100440.47;1676331;82;21169;-64
2021/08/16 08:24:57;;;;;;;12.13;7.25;;;;;;;28.15;48.98;100438.41;1763768;79;21497;-68
2021/08/16 08:27:24;;;;;;;14.25;7.55;;;;;;;28.19;48.73;100432.80;1772046;79;21101;-66
2021/08/16 08:29:50;;;;;;;12.20;7.85;;;;;;;28.25;48.51;100439.98;1765319;79;21077;-66
2021/08/16 08:32:17;;;;;;;17.20;7.70;;;;;;;28.29;48.46;100433.02;1762843;79;21180;-68
2021/08/16 08:34:44;;;;;;;14.28;8.00;;;;;;;28.35;49.00;100430.72;1762890;79;21019;-66
2021/08/16 08:37:11;;;;;;;9.98;6.47;;;;;;;28.42;48.06;100422.45;1744759;79;21094;-70
2021/08/16 08:39:38;;;;;;;14.20;7.70;;;;;;;28.48;48.34;100427.42;1738820;79;21093;-69
2021/08/16 08:42:05;;;;;;;10.38;7.00;;;;;;;28.55;48.20;100430.84;1763214;79;21030;-67
2021/08/16 08:44:32;;;;;;;10.03;6.30;;;;;;;28.59;47.70;100425.79;1732171;79;21084;-68
2021/08/16 08:46:59;;;;;;;12.58;7.28;;;;;;;28.59;48.06;100423.08;1770480;79;21066;-67
2021/08/16 08:49:26;;;;;;;9.73;6.45;;;;;;;28.65;48.52;100426.19;1763106;79;22167;-68
2021/08/16 08:52:11;;;;;;;10.30;7.25;;;;;;;28.72;48.15;100437.14;1762710;79;21208;-64
2021/08/16 08:54:37;;;;;;;10.15;6.05;;;;;;;28.81;47.21;100423.22;1757798;79;21086;-65
2021/08/16 08:57:05;;;;;;;9.75;6.08;;;;;;;28.89;45.83;100422.83;1739925;80;21094;-65
2021/08/16 08:59:32;;;;;;;12.15;8.00;;;;;;;28.97;45.07;100425.69;1763083;79;21517;-64
2021/08/16 09:01:59;;;;;;;15.38;7.92;;;;;;;29.04;44.92;100420.37;1768684;79;21075;-65
2021/08/16 09:04:26;;;;;;;15.88;9.70;;;;;;;29.09;44.77;100425.88;1766735;79;21383;-66
2021/08/16 09:06:52;;;;;;;14.70;9.05;;;;;;;29.17;44.82;100424.70;1763088;79;21133;-66
2021/08/16 09:09:20;;;;;;;12.35;6.67;;;;;;;29.25;45.00;100420.23;1763163;79;21181;-66
2021/08/16 09:11:50;;;;;;;13.53;7.25;;;;;;;29.33;44.24;100423.05;1763429;79;21695;-65
2021/08/16 09:14:17;;;;;;;10.75;5.97;;;;;;;29.40;44.12;100420.17;1765782;79;21034;-67
2021/08/16 09:16:46;;;;;;;17.57;7.25;;;;;;;29.46;41.77;100413.23;1763136;79;21479;-65
2021/08/16 09:19:23;;;;;;;14.73;8.00;;;;;;;29.54;40.56;100409.30;1769085;79;21533;-65
2021/08/16 09:24:27;;;;;;;8.03;5.55;;;;;;;29.70;40.79;100405.45;1757696;79;21071;-66
2021/08/16 09:27:01;;;;;;;14.28;8.10;;;;;;;29.78;39.77;100403.15;1759336;79;21054;-67
2021/08/16 09:29:28;;;;;;;10.35;5.40;;;;;;;29.87;38.54;100400.01;1757142;79;21537;-65
2021/08/16 09:32:07;;;;;;;7.72;4.90;;;;;;;29.92;37.39;100400.89;1762147;79;21616;-67
2021/08/16 09:34:49;;;;;;;10.03;5.67;;;;;;;30.01;37.12;100399.39;1755402;79;21557;-66
2021/08/16 09:37:20;;;;;;;9.63;5.58;;;;;;;30.09;37.00;100398.66;1758890;79;21105;-67
2021/08/16 09:40:07;;;;;;;7.97;5.22;;;;;;;30.15;37.72;100399.02;1757792;79;21055;-65
2021/08/16 09:42:49;;;;;;;11.40;6.55;;;;;;;30.24;37.63;100396.13;1757712;79;21450;-65
2021/08/16 09:45:33;;;;;;;12.15;7.85;;;;;;;30.33;35.48;100393.81;1742143;79;21469;-67
2021/08/16 09:48:10;;;;;;;33.88;20.43;;;;;;;30.36;35.07;100381.09;1724542;81;21270;-69
2021/08/16 09:50:46;;;;;;;19.05;12.23;;;;;;;30.36;35.65;100375.16;1758280;79;21615;-68
2021/08/16 09:53:16;;;;;;;27.62;18.55;;;;;;;30.43;36.08;100378.18;1755062;79;21157;-69
2021/08/16 09:55:49;;;;;;;9.85;6.03;;;;;;;30.52;36.42;100376.12;1738479;80;21149;-69
2021/08/16 09:58:18;;;;;;;46.55;29.87;;;;;;;30.63;34.76;100378.93;1743188;80;21106;-65
2021/08/16 10:00:48;;;;;;;24.10;16.02;;;;;;;30.70;34.80;100376.85;1758755;79;21127;-67
2021/08/16 10:03:14;;;;;;;26.60;16.52;;;;;;;30.79;35.43;100373.13;1740007;80;21549;-69
2021/08/16 10:05:46;;;;;;;12.37;5.67;;;;;;;30.88;36.16;100368.33;1759616;79;21656;-70
2021/08/16 10:08:15;;;;;;;7.75;5.35;;;;;;;30.97;36.49;100364.62;1739545;79;21067;-65
2021/08/16 10:10:43;;;;;;;6.42;4.50;;;;;;;31.06;36.04;100356.25;1754461;79;21699;-71
2021/08/16 10:13:11;;;;;;;9.88;5.70;;;;;;;31.15;34.98;100356.59;1739071;79;21046;-63
2021/08/16 10:15:44;;;;;;;10.43;6.37;;;;;;;31.23;35.34;100358.82;1728663;79;20995;-66
2021/08/16 10:18:14;;;;;;;9.15;4.40;;;;;;;31.29;36.03;100347.46;1731584;79;21684;-64
2021/08/16 10:20:47;;;;;;;7.22;4.65;;;;;;;31.38;34.41;100350.50;1760088;79;21125;-64
2021/08/16 10:23:21;;;;;;;9.20;5.90;;;;;;;31.45;34.29;100351.08;1761975;79;21379;-64
2021/08/16 10:25:50;;;;;;;9.20;5.08;;;;;;;31.49;32.85;100346.22;1757222;79;21113;-64
2021/08/16 10:28:34;;;;;;;8.50;4.90;;;;;;;31.48;32.83;100344.57;1758064;79;21046;-67
2021/08/16 10:31:02;;;;;;;8.35;5.05;;;;;;;31.52;34.29;100346.25;1754137;80;21070;-64
2021/08/16 10:33:29;;;;;;;6.95;4.70;;;;;;;31.60;32.51;100340.31;1757750;79;21549;-71
2021/08/16 10:35:55;;;;;;;7.10;4.80;;;;;;;31.65;31.22;100339.53;1742387;79;21027;-65
2021/08/16 10:38:24;;;;;;;13.88;4.85;;;;;;;31.68;31.36;100342.28;1756674;79;21921;-64
2021/08/16 10:40:56;;;;;;;11.48;5.37;;;;;;;31.72;32.19;100333.85;1758631;79;21062;-65
2021/08/16 10:43:33;;;;;;;9.55;5.37;;;;;;;31.77;32.59;100338.77;1759358;79;21053;-67
2021/08/16 10:45:59;;;;;;;8.15;5.12;;;;;;;31.87;32.41;100333.10;1758849;79;21081;-65
2021/08/16 10:48:30;;;;;;;7.17;4.67;;;;;;;32.00;32.44;100327.17;1735817;80;21090;-66
2021/08/16 10:51:06;;;;;;;8.50;4.78;;;;;;;32.09;32.28;100322.86;1760154;79;22231;-66
2021/08/16 10:53:35;;;;;;;11.85;7.08;;;;;;;32.17;32.10;100327.78;1739921;79;21119;-61
2021/08/16 10:56:02;;;;;;;8.38;4.78;;;;;;;32.26;32.51;100321.27;1751019;79;21090;-68
2021/08/16 10:58:28;;;;;;;9.20;5.20;;;;;;;32.33;32.47;100319.64;1762202;79;21058;-67
2021/08/16 11:00:54;;;;;;;9.80;5.45;;;;;;;32.38;32.09;100319.13;1744572;79;21170;-66
2021/08/16 11:03:24;;;;;;;9.30;5.60;;;;;;;32.39;31.24;100318.02;1762417;79;21682;-67
2021/08/16 11:05:51;;;;;;;7.50;5.15;;;;;;;32.39;31.79;100312.58;1753911;79;21094;-67
2021/08/16 11:08:24;;;;;;;7.85;5.30;;;;;;;32.39;32.40;100301.69;1759102;79;21071;-65
2021/08/16 11:10:52;;;;;;;7.28;4.85;;;;;;;32.43;30.60;100307.95;1739802;79;21118;-67
2021/08/16 11:13:20;;;;;;;12.13;5.60;;;;;;;32.45;31.30;100305.77;1738957;79;21114;-66
2021/08/16 11:15:48;;;;;;;8.55;5.03;;;;;;;32.51;31.08;100308.78;1760389;79;21120;-65
2021/08/16 11:18:19;;;;;;;8.38;4.37;;;;;;;32.56;30.62;100311.51;1758951;79;21054;-67
2021/08/16 11:20:59;;;;;;;18.65;5.20;;;;;;;32.56;29.30;100310.95;1757786;79;21134;-65
2021/08/16 11:23:25;;;;;;;11.45;5.42;;;;;;;32.57;30.31;100304.43;1727128;81;21170;-66